sensor_id;sensor_type;location;lat;lon;timestamp;P1;durP1;ratioP1;P2;durP2;ratioP2
14982;SDS011;7587;51.494;11.930;2022-07-05T00:00:14;2.38;;;0.77;;
14982;SDS011;7587;51.494;11.930;2022-07-05T00:02:41;1.02;;;0.65;;
14982;SDS011;7587;51.494;11.930;2022-07-05T00:05:08;0.63;;;0.50;;
14982;SDS011;7587;51.494;11.930;2022-07-05T00:07:35;1.33;;;0.80;;
14982;SDS011;7587;51.494;11.930;2022-07-05T00:10:02;3.33;;;0.70;;
14982;SDS011;7587;51.494;11.930;2022-07-05T00:12:30;0.75;;;0.75;;
14982;SDS011;7587;51.494;11.930;2022-07-05T00:14:58;0.85;;;0.80;;
14982;SDS011;7587;51.494;11.930;2022-07-05T00:17:24;1.35;;;0.70;;
14982;SDS011;7587;51.494;11.930;2022-07-05T00:19:51;1.45;;;0.98;;
14982;SDS011;7587;51.494;11.930;2022-07-05T00:22:17;0.70;;;0.70;;
14982;SDS011;7587;51.494;11.930;2022-07-05T00:24:45;1.23;;;0.60;;
14982;SDS011;7587;51.494;11.930;2022-07-05T00:27:11;1.02;;;0.90;;
14982;SDS011;7587;51.494;11.930;2022-07-05T00:29:38;0.82;;;0.60;;
14982;SDS011;7587;51.494;11.930;2022-07-05T00:32:04;0.93;;;0.47;;
14982;SDS011;7587;51.494;11.930;2022-07-05T00:34:31;4.93;;;1.08;;
14982;SDS011;7587;51.494;11.930;2022-07-05T00:36:57;0.68;;;0.60;;
14982;SDS011;7587;51.494;11.930;2022-07-05T00:39:24;0.63;;;0.63;;
14982;SDS011;7587;51.494;11.930;2022-07-05T00:41:52;0.70;;;0.70;;
14982;SDS011;7587;51.494;11.930;2022-07-05T00:44:27;1.15;;;0.60;;
14982;SDS011;7587;51.494;11.930;2022-07-05T00:46:54;1.25;;;0.77;;
14982;SDS011;7587;51.494;11.930;2022-07-05T00:49:21;1.80;;;0.75;;
14982;SDS011;7587;51.494;11.930;2022-07-05T00:51:47;0.88;;;0.60;;
14982;SDS011;7587;51.494;11.930;2022-07-05T00:54:13;2.08;;;0.85;;
14982;SDS011;7587;51.494;11.930;2022-07-05T00:56:40;1.17;;;0.60;;
14982;SDS011;7587;51.494;11.930;2022-07-05T00:59:07;0.45;;;0.45;;
14982;SDS011;7587;51.494;11.930;2022-07-05T01:01:34;0.90;;;0.80;;
14982;SDS011;7587;51.494;11.930;2022-07-05T01:04:00;1.17;;;0.88;;
14982;SDS011;7587;51.494;11.930;2022-07-05T01:06:27;2.03;;;0.82;;
14982;SDS011;7587;51.494;11.930;2022-07-05T01:08:53;1.23;;;0.82;;
14982;SDS011;7587;51.494;11.930;2022-07-05T01:11:20;4.90;;;0.85;;
14982;SDS011;7587;51.494;11.930;2022-07-05T01:13:46;0.98;;;0.80;;
14982;SDS011;7587;51.494;11.930;2022-07-05T01:16:14;1.20;;;0.93;;
14982;SDS011;7587;51.494;11.930;2022-07-05T01:18:40;0.88;;;0.82;;
14982;SDS011;7587;51.494;11.930;2022-07-05T01:21:07;1.75;;;1.00;;
14982;SDS011;7587;51.494;11.930;2022-07-05T01:23:35;1.38;;;1.27;;
14982;SDS011;7587;51.494;11.930;2022-07-05T01:26:02;1.60;;;0.75;;
14982;SDS011;7587;51.494;11.930;2022-07-05T01:28:36;2.47;;;0.90;;
14982;SDS011;7587;51.494;11.930;2022-07-05T01:31:09;1.48;;;0.93;;
14982;SDS011;7587;51.494;11.930;2022-07-05T01:33:42;1.23;;;1.13;;
14982;SDS011;7587;51.494;11.930;2022-07-05T01:36:10;2.20;;;0.90;;
14982;SDS011;7587;51.494;11.930;2022-07-05T01:38:38;2.63;;;0.95;;
14982;SDS011;7587;51.494;11.930;2022-07-05T01:41:05;1.30;;;0.77;;
14982;SDS011;7587;51.494;11.930;2022-07-05T01:43:31;0.80;;;0.80;;
14982;SDS011;7587;51.494;11.930;2022-07-05T01:45:58;1.05;;;0.85;;
14982;SDS011;7587;51.494;11.930;2022-07-05T01:48:27;1.33;;;0.85;;
14982;SDS011;7587;51.494;11.930;2022-07-05T01:50:57;1.40;;;1.00;;
14982;SDS011;7587;51.494;11.930;2022-07-05T01:53:27;1.20;;;0.77;;
14982;SDS011;7587;51.494;11.930;2022-07-05T01:55:56;0.80;;;0.80;;
14982;SDS011;7587;51.494;11.930;2022-07-05T01:58:24;1.65;;;1.08;;
14982;SDS011;7587;51.494;11.930;2022-07-05T02:00:51;1.45;;;0.93;;
14982;SDS011;7587;51.494;11.930;2022-07-05T02:03:19;0.88;;;0.88;;
14982;SDS011;7587;51.494;11.930;2022-07-05T02:05:45;2.78;;;1.20;;
14982;SDS011;7587;51.494;11.930;2022-07-05T02:08:13;3.58;;;0.85;;
14982;SDS011;7587;51.494;11.930;2022-07-05T02:10:39;1.25;;;0.80;;
14982;SDS011;7587;51.494;11.930;2022-07-05T02:13:08;2.35;;;1.00;;
14982;SDS011;7587;51.494;11.930;2022-07-05T02:15:35;1.30;;;0.95;;
14982;SDS011;7587;51.494;11.930;2022-07-05T02:18:03;1.13;;;0.82;;
14982;SDS011;7587;51.494;11.930;2022-07-05T02:20:30;1.65;;;1.08;;
14982;SDS011;7587;51.494;11.930;2022-07-05T02:22:57;0.85;;;0.85;;
14982;SDS011;7587;51.494;11.930;2022-07-05T02:25:24;1.30;;;0.90;;
14982;SDS011;7587;51.494;11.930;2022-07-05T02:27:51;1.23;;;1.00;;
14982;SDS011;7587;51.494;11.930;2022-07-05T02:30:19;1.52;;;0.98;;
14982;SDS011;7587;51.494;11.930;2022-07-05T02:32:46;1.95;;;0.93;;
14982;SDS011;7587;51.494;11.930;2022-07-05T02:35:12;1.48;;;1.10;;
14982;SDS011;7587;51.494;11.930;2022-07-05T02:37:39;2.47;;;1.02;;
14982;SDS011;7587;51.494;11.930;2022-07-05T02:40:06;0.80;;;0.80;;
14982;SDS011;7587;51.494;11.930;2022-07-05T02:42:33;1.45;;;1.35;;
14982;SDS011;7587;51.494;11.930;2022-07-05T02:44:59;0.95;;;0.82;;
14982;SDS011;7587;51.494;11.930;2022-07-05T02:47:29;1.17;;;0.95;;
14982;SDS011;7587;51.494;11.930;2022-07-05T02:49:56;1.35;;;1.05;;
14982;SDS011;7587;51.494;11.930;2022-07-05T02:52:23;3.08;;;1.20;;
14982;SDS011;7587;51.494;11.930;2022-07-05T02:54:49;2.83;;;1.10;;
14982;SDS011;7587;51.494;11.930;2022-07-05T02:57:16;1.20;;;1.10;;
14982;SDS011;7587;51.494;11.930;2022-07-05T02:59:42;2.28;;;1.20;;
14982;SDS011;7587;51.494;11.930;2022-07-05T03:02:09;1.67;;;1.05;;
14982;SDS011;7587;51.494;11.930;2022-07-05T03:04:37;1.35;;;1.20;;
14982;SDS011;7587;51.494;11.930;2022-07-05T03:07:03;1.27;;;1.08;;
14982;SDS011;7587;51.494;11.930;2022-07-05T03:09:29;2.55;;;1.33;;
14982;SDS011;7587;51.494;11.930;2022-07-05T03:11:56;2.08;;;1.20;;
14982;SDS011;7587;51.494;11.930;2022-07-05T03:14:22;2.10;;;1.40;;
14982;SDS011;7587;51.494;11.930;2022-07-05T03:16:50;3.67;;;1.48;;
14982;SDS011;7587;51.494;11.930;2022-07-05T03:19:16;1.70;;;1.58;;
14982;SDS011;7587;51.494;11.930;2022-07-05T03:21:44;1.70;;;1.60;;
14982;SDS011;7587;51.494;11.930;2022-07-05T03:24:10;1.73;;;1.52;;
14982;SDS011;7587;51.494;11.930;2022-07-05T03:26:37;2.83;;;1.70;;
14982;SDS011;7587;51.494;11.930;2022-07-05T03:29:03;2.85;;;1.92;;
14982;SDS011;7587;51.494;11.930;2022-07-05T03:31:29;2.90;;;1.48;;
14982;SDS011;7587;51.494;11.930;2022-07-05T03:33:56;2.85;;;1.70;;
14982;SDS011;7587;51.494;11.930;2022-07-05T03:36:22;2.70;;;2.05;;
14982;SDS011;7587;51.494;11.930;2022-07-05T03:38:50;1.70;;;1.60;;
14982;SDS011;7587;51.494;11.930;2022-07-05T03:41:16;3.08;;;1.80;;
14982;SDS011;7587;51.494;11.930;2022-07-05T03:43:43;1.77;;;1.63;;
14982;SDS011;7587;51.494;11.930;2022-07-05T03:46:09;2.47;;;2.00;;
14982;SDS011;7587;51.494;11.930;2022-07-05T03:48:36;2.05;;;1.83;;
14982;SDS011;7587;51.494;11.930;2022-07-05T03:51:02;3.22;;;1.80;;
14982;SDS011;7587;51.494;11.930;2022-07-05T03:53:29;4.80;;;1.90;;
14982;SDS011;7587;51.494;11.930;2022-07-05T03:55:56;2.83;;;2.13;;
14982;SDS011;7587;51.494;11.930;2022-07-05T03:58:23;2.78;;;1.90;;
14982;SDS011;7587;51.494;11.930;2022-07-05T04:00:49;3.38;;;1.80;;
14982;SDS011;7587;51.494;11.930;2022-07-05T04:03:16;2.88;;;1.90;;
14982;SDS011;7587;51.494;11.930;2022-07-05T04:05:42;3.58;;;2.10;;
14982;SDS011;7587;51.494;11.930;2022-07-05T04:08:08;3.67;;;2.10;;
14982;SDS011;7587;51.494;11.930;2022-07-05T04:10:35;2.88;;;1.88;;
14982;SDS011;7587;51.494;11.930;2022-07-05T04:13:03;2.55;;;2.10;;
14982;SDS011;7587;51.494;11.930;2022-07-05T04:15:29;3.88;;;1.98;;
14982;SDS011;7587;51.494;11.930;2022-07-05T04:17:56;2.65;;;1.83;;
14982;SDS011;7587;51.494;11.930;2022-07-05T04:20:22;3.58;;;1.95;;
14982;SDS011;7587;51.494;11.930;2022-07-05T04:22:50;2.85;;;2.20;;
14982;SDS011;7587;51.494;11.930;2022-07-05T04:25:17;4.63;;;2.00;;
14982;SDS011;7587;51.494;11.930;2022-07-05T04:27:44;5.63;;;2.40;;
14982;SDS011;7587;51.494;11.930;2022-07-05T04:30:12;2.42;;;1.90;;
14982;SDS011;7587;51.494;11.930;2022-07-05T04:32:39;3.53;;;2.00;;
14982;SDS011;7587;51.494;11.930;2022-07-05T04:35:06;3.20;;;1.75;;
14982;SDS011;7587;51.494;11.930;2022-07-05T04:37:33;3.50;;;1.80;;
14982;SDS011;7587;51.494;11.930;2022-07-05T04:40:00;3.35;;;2.30;;
14982;SDS011;7587;51.494;11.930;2022-07-05T04:42:26;5.03;;;2.10;;
14982;SDS011;7587;51.494;11.930;2022-07-05T04:44:53;2.75;;;2.50;;
14982;SDS011;7587;51.494;11.930;2022-07-05T04:47:21;2.00;;;1.90;;
14982;SDS011;7587;51.494;11.930;2022-07-05T04:49:48;2.80;;;2.10;;
14982;SDS011;7587;51.494;11.930;2022-07-05T04:52:14;2.92;;;1.90;;
14982;SDS011;7587;51.494;11.930;2022-07-05T04:54:41;1.92;;;1.83;;
14982;SDS011;7587;51.494;11.930;2022-07-05T04:57:07;4.47;;;2.00;;
14982;SDS011;7587;51.494;11.930;2022-07-05T04:59:34;2.33;;;1.88;;
14982;SDS011;7587;51.494;11.930;2022-07-05T05:02:01;3.83;;;1.90;;
14982;SDS011;7587;51.494;11.930;2022-07-05T05:04:29;4.05;;;1.80;;
14982;SDS011;7587;51.494;11.930;2022-07-05T05:06:56;2.42;;;1.65;;
14982;SDS011;7587;51.494;11.930;2022-07-05T05:09:22;1.92;;;1.70;;
14982;SDS011;7587;51.494;11.930;2022-07-05T05:11:48;3.38;;;1.90;;
14982;SDS011;7587;51.494;11.930;2022-07-05T05:14:15;3.83;;;2.42;;
14982;SDS011;7587;51.494;11.930;2022-07-05T05:16:41;2.63;;;1.92;;
14982;SDS011;7587;51.494;11.930;2022-07-05T05:19:08;5.25;;;1.58;;
14982;SDS011;7587;51.494;11.930;2022-07-05T05:21:35;6.10;;;1.50;;
14982;SDS011;7587;51.494;11.930;2022-07-05T05:24:02;2.92;;;1.45;;
14982;SDS011;7587;51.494;11.930;2022-07-05T05:26:29;3.88;;;1.70;;
14982;SDS011;7587;51.494;11.930;2022-07-05T05:28:55;3.20;;;1.50;;
14982;SDS011;7587;51.494;11.930;2022-07-05T05:31:21;2.38;;;1.35;;
14982;SDS011;7587;51.494;11.930;2022-07-05T05:33:48;4.22;;;1.48;;
14982;SDS011;7587;51.494;11.930;2022-07-05T05:36:14;2.88;;;1.80;;
14982;SDS011;7587;51.494;11.930;2022-07-05T05:38:42;2.13;;;1.30;;
14982;SDS011;7587;51.494;11.930;2022-07-05T05:41:08;3.35;;;1.52;;
14982;SDS011;7587;51.494;11.930;2022-07-05T05:43:35;1.80;;;1.13;;
14982;SDS011;7587;51.494;11.930;2022-07-05T05:46:02;3.75;;;1.63;;
14982;SDS011;7587;51.494;11.930;2022-07-05T05:48:29;1.67;;;1.10;;
14982;SDS011;7587;51.494;11.930;2022-07-05T05:50:56;2.83;;;0.93;;
14982;SDS011;7587;51.494;11.930;2022-07-05T05:53:22;1.48;;;0.93;;
14982;SDS011;7587;51.494;11.930;2022-07-05T06:01:59;2.00;;;1.02;;
14982;SDS011;7587;51.494;11.930;2022-07-05T06:04:25;1.42;;;1.10;;
14982;SDS011;7587;51.494;11.930;2022-07-05T06:06:52;1.15;;;0.70;;
14982;SDS011;7587;51.494;11.930;2022-07-05T06:09:18;2.80;;;1.15;;
14982;SDS011;7587;51.494;11.930;2022-07-05T06:11:44;3.65;;;1.35;;
14982;SDS011;7587;51.494;11.930;2022-07-05T06:14:11;2.25;;;1.48;;
14982;SDS011;7587;51.494;11.930;2022-07-05T06:16:37;2.15;;;1.25;;
14982;SDS011;7587;51.494;11.930;2022-07-05T06:19:05;1.25;;;0.93;;
14982;SDS011;7587;51.494;11.930;2022-07-05T06:21:31;1.42;;;0.90;;
14982;SDS011;7587;51.494;11.930;2022-07-05T06:23:58;3.95;;;1.20;;
14982;SDS011;7587;51.494;11.930;2022-07-05T06:26:24;4.28;;;1.25;;
14982;SDS011;7587;51.494;11.930;2022-07-05T06:28:51;3.60;;;1.63;;
14982;SDS011;7587;51.494;11.930;2022-07-05T06:31:17;2.00;;;0.90;;
14982;SDS011;7587;51.494;11.930;2022-07-05T06:33:43;3.03;;;1.30;;
14982;SDS011;7587;51.494;11.930;2022-07-05T06:36:11;2.22;;;1.10;;
14982;SDS011;7587;51.494;11.930;2022-07-05T06:38:37;2.83;;;1.10;;
14982;SDS011;7587;51.494;11.930;2022-07-05T06:41:10;7.47;;;1.40;;
14982;SDS011;7587;51.494;11.930;2022-07-05T06:43:36;3.47;;;1.13;;
14982;SDS011;7587;51.494;11.930;2022-07-05T06:46:03;2.75;;;1.25;;
14982;SDS011;7587;51.494;11.930;2022-07-05T06:48:29;2.90;;;1.17;;
14982;SDS011;7587;51.494;11.930;2022-07-05T06:50:55;4.65;;;1.10;;
14982;SDS011;7587;51.494;11.930;2022-07-05T06:53:23;2.53;;;1.27;;
14982;SDS011;7587;51.494;11.930;2022-07-05T06:55:50;4.18;;;0.98;;
14982;SDS011;7587;51.494;11.930;2022-07-05T06:58:16;3.30;;;1.45;;
14982;SDS011;7587;51.494;11.930;2022-07-05T07:00:43;2.80;;;1.27;;
14982;SDS011;7587;51.494;11.930;2022-07-05T07:03:10;1.63;;;1.27;;
14982;SDS011;7587;51.494;11.930;2022-07-05T07:05:36;2.47;;;1.00;;
14982;SDS011;7587;51.494;11.930;2022-07-05T07:08:03;2.58;;;1.20;;
14982;SDS011;7587;51.494;11.930;2022-07-05T07:10:48;4.13;;;1.45;;
14982;SDS011;7587;51.494;11.930;2022-07-05T07:13:15;1.73;;;1.10;;
14982;SDS011;7587;51.494;11.930;2022-07-05T07:15:41;2.22;;;1.00;;
14982;SDS011;7587;51.494;11.930;2022-07-05T07:18:08;2.00;;;0.73;;
14982;SDS011;7587;51.494;11.930;2022-07-05T07:20:34;1.35;;;0.80;;
14982;SDS011;7587;51.494;11.930;2022-07-05T07:23:01;0.95;;;0.80;;
14982;SDS011;7587;51.494;11.930;2022-07-05T07:25:27;1.45;;;1.05;;
14982;SDS011;7587;51.494;11.930;2022-07-05T07:27:55;2.70;;;1.17;;
14982;SDS011;7587;51.494;11.930;2022-07-05T07:30:28;1.75;;;0.80;;
14982;SDS011;7587;51.494;11.930;2022-07-05T07:32:54;3.15;;;1.10;;
14982;SDS011;7587;51.494;11.930;2022-07-05T07:35:21;1.15;;;0.70;;
14982;SDS011;7587;51.494;11.930;2022-07-05T07:37:47;2.25;;;0.90;;
14982;SDS011;7587;51.494;11.930;2022-07-05T07:40:14;1.95;;;0.70;;
14982;SDS011;7587;51.494;11.930;2022-07-05T07:42:40;2.40;;;1.00;;
14982;SDS011;7587;51.494;11.930;2022-07-05T07:45:09;0.98;;;0.88;;
14982;SDS011;7587;51.494;11.930;2022-07-05T07:47:36;1.85;;;1.13;;
14982;SDS011;7587;51.494;11.930;2022-07-05T07:50:03;3.33;;;1.05;;
14982;SDS011;7587;51.494;11.930;2022-07-05T07:52:30;2.10;;;0.90;;
14982;SDS011;7587;51.494;11.930;2022-07-05T07:54:58;1.63;;;1.10;;
14982;SDS011;7587;51.494;11.930;2022-07-05T07:57:25;1.50;;;1.00;;
14982;SDS011;7587;51.494;11.930;2022-07-05T07:59:51;1.85;;;1.30;;
14982;SDS011;7587;51.494;11.930;2022-07-05T08:02:19;1.33;;;0.90;;
14982;SDS011;7587;51.494;11.930;2022-07-05T08:04:47;3.10;;;1.38;;
14982;SDS011;7587;51.494;11.930;2022-07-05T08:07:14;1.92;;;0.98;;
14982;SDS011;7587;51.494;11.930;2022-07-05T08:09:40;2.58;;;1.17;;
14982;SDS011;7587;51.494;11.930;2022-07-05T08:12:07;1.52;;;1.00;;
14982;SDS011;7587;51.494;11.930;2022-07-05T08:14:34;4.28;;;1.17;;
14982;SDS011;7587;51.494;11.930;2022-07-05T08:17:00;1.20;;;1.10;;
14982;SDS011;7587;51.494;11.930;2022-07-05T08:19:28;1.95;;;1.10;;
14982;SDS011;7587;51.494;11.930;2022-07-05T08:22:12;2.05;;;1.20;;
14982;SDS011;7587;51.494;11.930;2022-07-05T08:24:39;3.33;;;1.42;;
14982;SDS011;7587;51.494;11.930;2022-07-05T08:27:06;2.95;;;1.38;;
14982;SDS011;7587;51.494;11.930;2022-07-05T08:29:33;2.17;;;1.23;;
14982;SDS011;7587;51.494;11.930;2022-07-05T08:31:59;3.80;;;1.23;;
14982;SDS011;7587;51.494;11.930;2022-07-05T08:34:27;0.93;;;0.77;;
14982;SDS011;7587;51.494;11.930;2022-07-05T08:36:54;1.67;;;1.13;;
14982;SDS011;7587;51.494;11.930;2022-07-05T08:39:20;2.92;;;1.27;;
14982;SDS011;7587;51.494;11.930;2022-07-05T08:41:48;2.72;;;1.10;;
14982;SDS011;7587;51.494;11.930;2022-07-05T08:44:15;4.00;;;1.35;;
14982;SDS011;7587;51.494;11.930;2022-07-05T08:46:44;3.45;;;1.40;;
14982;SDS011;7587;51.494;11.930;2022-07-05T08:49:11;3.70;;;1.20;;
14982;SDS011;7587;51.494;11.930;2022-07-05T08:51:41;2.30;;;1.27;;
14982;SDS011;7587;51.494;11.930;2022-07-05T08:54:08;2.65;;;1.30;;
14982;SDS011;7587;51.494;11.930;2022-07-05T08:56:36;3.75;;;1.15;;
14982;SDS011;7587;51.494;11.930;2022-07-05T08:59:03;1.95;;;0.90;;
14982;SDS011;7587;51.494;11.930;2022-07-05T09:01:29;3.17;;;1.25;;
14982;SDS011;7587;51.494;11.930;2022-07-05T09:04:00;3.60;;;1.85;;
14982;SDS011;7587;51.494;11.930;2022-07-05T09:06:27;2.78;;;1.30;;
14982;SDS011;7587;51.494;11.930;2022-07-05T09:08:56;2.35;;;1.15;;
14982;SDS011;7587;51.494;11.930;2022-07-05T09:11:27;3.63;;;1.40;;
14982;SDS011;7587;51.494;11.930;2022-07-05T09:13:57;2.33;;;1.20;;
14982;SDS011;7587;51.494;11.930;2022-07-05T09:16:23;2.53;;;1.13;;
14982;SDS011;7587;51.494;11.930;2022-07-05T09:18:50;2.95;;;1.30;;
14982;SDS011;7587;51.494;11.930;2022-07-05T09:21:19;3.75;;;1.20;;
14982;SDS011;7587;51.494;11.930;2022-07-05T09:23:52;3.95;;;1.23;;
14982;SDS011;7587;51.494;11.930;2022-07-05T09:26:21;12.13;;;1.73;;
14982;SDS011;7587;51.494;11.930;2022-07-05T09:28:54;3.60;;;1.30;;
14982;SDS011;7587;51.494;11.930;2022-07-05T09:31:26;3.53;;;1.33;;
14982;SDS011;7587;51.494;11.930;2022-07-05T09:33:54;4.57;;;1.40;;
14982;SDS011;7587;51.494;11.930;2022-07-05T09:36:23;2.80;;;1.40;;
14982;SDS011;7587;51.494;11.930;2022-07-05T09:38:50;4.28;;;1.10;;
14982;SDS011;7587;51.494;11.930;2022-07-05T09:41:17;3.72;;;1.45;;
14982;SDS011;7587;51.494;11.930;2022-07-05T09:43:44;3.35;;;1.35;;
14982;SDS011;7587;51.494;11.930;2022-07-05T09:46:11;3.28;;;1.10;;
14982;SDS011;7587;51.494;11.930;2022-07-05T09:48:50;5.43;;;1.02;;
14982;SDS011;7587;51.494;11.930;2022-07-05T09:51:17;3.40;;;1.33;;
14982;SDS011;7587;51.494;11.930;2022-07-05T09:53:44;4.15;;;1.20;;
14982;SDS011;7587;51.494;11.930;2022-07-05T09:56:11;3.42;;;1.20;;
14982;SDS011;7587;51.494;11.930;2022-07-05T09:58:38;3.35;;;1.40;;
14982;SDS011;7587;51.494;11.930;2022-07-05T10:01:08;4.18;;;1.30;;
14982;SDS011;7587;51.494;11.930;2022-07-05T10:03:52;4.75;;;1.45;;
14982;SDS011;7587;51.494;11.930;2022-07-05T10:06:22;1.98;;;1.30;;
14982;SDS011;7587;51.494;11.930;2022-07-05T10:08:49;2.78;;;1.23;;
14982;SDS011;7587;51.494;11.930;2022-07-05T10:11:16;3.45;;;1.10;;
14982;SDS011;7587;51.494;11.930;2022-07-05T10:13:43;2.60;;;1.17;;
14982;SDS011;7587;51.494;11.930;2022-07-05T10:16:12;2.83;;;1.33;;
14982;SDS011;7587;51.494;11.930;2022-07-05T10:18:38;1.25;;;1.10;;
14982;SDS011;7587;51.494;11.930;2022-07-05T10:21:05;3.50;;;1.00;;
14982;SDS011;7587;51.494;11.930;2022-07-05T10:23:33;3.22;;;1.27;;
14982;SDS011;7587;51.494;11.930;2022-07-05T10:26:00;3.70;;;1.20;;
14982;SDS011;7587;51.494;11.930;2022-07-05T10:28:27;6.13;;;1.50;;
14982;SDS011;7587;51.494;11.930;2022-07-05T10:30:54;2.33;;;1.08;;
14982;SDS011;7587;51.494;11.930;2022-07-05T10:33:22;5.93;;;1.58;;
14982;SDS011;7587;51.494;11.930;2022-07-05T10:35:52;1.25;;;1.10;;
14982;SDS011;7587;51.494;11.930;2022-07-05T10:38:18;4.03;;;1.25;;
14982;SDS011;7587;51.494;11.930;2022-07-05T10:40:46;3.15;;;1.17;;
14982;SDS011;7587;51.494;11.930;2022-07-05T10:43:14;3.58;;;1.15;;
14982;SDS011;7587;51.494;11.930;2022-07-05T10:45:46;7.28;;;1.50;;
14982;SDS011;7587;51.494;11.930;2022-07-05T10:48:17;2.10;;;1.05;;
14982;SDS011;7587;51.494;11.930;2022-07-05T10:50:46;1.55;;;1.00;;
14982;SDS011;7587;51.494;11.930;2022-07-05T10:53:15;2.97;;;1.27;;
14982;SDS011;7587;51.494;11.930;2022-07-05T10:55:52;4.18;;;1.50;;
14982;SDS011;7587;51.494;11.930;2022-07-05T10:58:24;1.38;;;0.90;;
14982;SDS011;7587;51.494;11.930;2022-07-05T11:04:06;4.57;;;1.20;;
14982;SDS011;7587;51.494;11.930;2022-07-05T11:06:41;2.25;;;1.13;;
14982;SDS011;7587;51.494;11.930;2022-07-05T11:09:15;3.97;;;1.10;;
14982;SDS011;7587;51.494;11.930;2022-07-05T11:11:45;3.95;;;1.33;;
14982;SDS011;7587;51.494;11.930;2022-07-05T11:17:12;1.50;;;0.90;;
14982;SDS011;7587;51.494;11.930;2022-07-05T11:20:00;1.38;;;0.80;;
14982;SDS011;7587;51.494;11.930;2022-07-05T11:22:32;2.15;;;1.20;;
14982;SDS011;7587;51.494;11.930;2022-07-05T11:24:59;2.03;;;1.00;;
14982;SDS011;7587;51.494;11.930;2022-07-05T11:27:26;5.70;;;1.45;;
14982;SDS011;7587;51.494;11.930;2022-07-05T11:29:52;1.83;;;1.33;;
14982;SDS011;7587;51.494;11.930;2022-07-05T11:32:20;2.80;;;1.00;;
14982;SDS011;7587;51.494;11.930;2022-07-05T11:34:54;1.60;;;0.90;;
14982;SDS011;7587;51.494;11.930;2022-07-05T11:37:22;2.22;;;1.25;;
14982;SDS011;7587;51.494;11.930;2022-07-05T11:42:52;2.28;;;1.38;;
14982;SDS011;7587;51.494;11.930;2022-07-05T11:45:19;1.67;;;0.90;;
14982;SDS011;7587;51.494;11.930;2022-07-05T11:47:45;3.63;;;1.08;;
14982;SDS011;7587;51.494;11.930;2022-07-05T11:50:12;1.50;;;1.05;;
14982;SDS011;7587;51.494;11.930;2022-07-05T11:52:39;3.35;;;0.95;;
14982;SDS011;7587;51.494;11.930;2022-07-05T11:55:07;1.52;;;0.70;;
14982;SDS011;7587;51.494;11.930;2022-07-05T11:57:34;1.77;;;0.88;;
14982;SDS011;7587;51.494;11.930;2022-07-05T12:00:02;2.20;;;1.08;;
14982;SDS011;7587;51.494;11.930;2022-07-05T12:02:30;3.22;;;1.30;;
14982;SDS011;7587;51.494;11.930;2022-07-05T12:04:57;3.45;;;1.17;;
14982;SDS011;7587;51.494;11.930;2022-07-05T12:07:24;2.83;;;0.90;;
14982;SDS011;7587;51.494;11.930;2022-07-05T12:09:51;2.33;;;1.00;;
14982;SDS011;7587;51.494;11.930;2022-07-05T12:12:35;1.63;;;1.10;;
14982;SDS011;7587;51.494;11.930;2022-07-05T12:15:14;7.43;;;1.30;;
14982;SDS011;7587;51.494;11.930;2022-07-05T12:17:43;1.48;;;1.08;;
14982;SDS011;7587;51.494;11.930;2022-07-05T12:20:11;2.03;;;1.02;;
14982;SDS011;7587;51.494;11.930;2022-07-05T12:22:39;3.00;;;1.10;;
14982;SDS011;7587;51.494;11.930;2022-07-05T12:25:07;4.93;;;1.10;;
14982;SDS011;7587;51.494;11.930;2022-07-05T12:27:35;3.92;;;1.25;;
14982;SDS011;7587;51.494;11.930;2022-07-05T12:30:03;3.00;;;1.23;;
14982;SDS011;7587;51.494;11.930;2022-07-05T12:32:32;3.20;;;1.60;;
14982;SDS011;7587;51.494;11.930;2022-07-05T12:35:01;3.83;;;1.08;;
14982;SDS011;7587;51.494;11.930;2022-07-05T12:37:28;1.48;;;1.17;;
14982;SDS011;7587;51.494;11.930;2022-07-05T12:40:02;1.92;;;1.08;;
14982;SDS011;7587;51.494;11.930;2022-07-05T12:42:30;3.20;;;1.02;;
14982;SDS011;7587;51.494;11.930;2022-07-05T12:45:10;3.67;;;1.40;;
14982;SDS011;7587;51.494;11.930;2022-07-05T12:47:48;1.52;;;0.82;;
14982;SDS011;7587;51.494;11.930;2022-07-05T12:50:18;1.98;;;1.10;;
14982;SDS011;7587;51.494;11.930;2022-07-05T12:55:57;2.05;;;1.38;;
14982;SDS011;7587;51.494;11.930;2022-07-05T12:58:44;2.92;;;1.17;;
14982;SDS011;7587;51.494;11.930;2022-07-05T13:01:18;2.65;;;1.27;;
14982;SDS011;7587;51.494;11.930;2022-07-05T13:03:59;2.97;;;1.13;;
14982;SDS011;7587;51.494;11.930;2022-07-05T13:06:43;2.08;;;1.15;;
14982;SDS011;7587;51.494;11.930;2022-07-05T13:09:12;3.70;;;1.30;;
14982;SDS011;7587;51.494;11.930;2022-07-05T13:11:41;2.65;;;1.10;;
14982;SDS011;7587;51.494;11.930;2022-07-05T13:14:07;4.80;;;1.30;;
14982;SDS011;7587;51.494;11.930;2022-07-05T13:16:34;2.88;;;1.45;;
14982;SDS011;7587;51.494;11.930;2022-07-05T13:19:09;1.80;;;1.20;;
14982;SDS011;7587;51.494;11.930;2022-07-05T13:21:36;2.50;;;1.27;;
14982;SDS011;7587;51.494;11.930;2022-07-05T13:24:03;3.53;;;1.00;;
14982;SDS011;7587;51.494;11.930;2022-07-05T13:26:30;5.32;;;1.20;;
14982;SDS011;7587;51.494;11.930;2022-07-05T13:28:57;4.85;;;1.10;;
14982;SDS011;7587;51.494;11.930;2022-07-05T13:31:23;2.75;;;1.30;;
14982;SDS011;7587;51.494;11.930;2022-07-05T13:33:50;2.20;;;1.50;;
14982;SDS011;7587;51.494;11.930;2022-07-05T13:36:18;2.35;;;1.13;;
14982;SDS011;7587;51.494;11.930;2022-07-05T13:38:44;3.65;;;1.10;;
14982;SDS011;7587;51.494;11.930;2022-07-05T13:41:11;2.70;;;1.55;;
14982;SDS011;7587;51.494;11.930;2022-07-05T13:43:37;2.00;;;1.10;;
14982;SDS011;7587;51.494;11.930;2022-07-05T13:46:04;3.58;;;1.30;;
14982;SDS011;7587;51.494;11.930;2022-07-05T13:48:30;3.53;;;1.25;;
14982;SDS011;7587;51.494;11.930;2022-07-05T13:50:58;5.28;;;1.23;;
14982;SDS011;7587;51.494;11.930;2022-07-05T13:53:26;3.55;;;1.40;;
14982;SDS011;7587;51.494;11.930;2022-07-05T13:55:53;2.28;;;1.63;;
14982;SDS011;7587;51.494;11.930;2022-07-05T13:58:19;2.97;;;1.27;;
14982;SDS011;7587;51.494;11.930;2022-07-05T14:00:46;3.92;;;1.00;;
14982;SDS011;7587;51.494;11.930;2022-07-05T14:03:12;4.45;;;1.50;;
14982;SDS011;7587;51.494;11.930;2022-07-05T14:05:41;2.30;;;1.60;;
14982;SDS011;7587;51.494;11.930;2022-07-05T14:08:09;9.50;;;1.30;;
14982;SDS011;7587;51.494;11.930;2022-07-05T14:10:37;4.35;;;1.13;;
14982;SDS011;7587;51.494;11.930;2022-07-05T14:13:04;1.35;;;0.90;;
14982;SDS011;7587;51.494;11.930;2022-07-05T14:15:30;2.00;;;1.00;;
14982;SDS011;7587;51.494;11.930;2022-07-05T14:17:57;1.63;;;0.95;;
14982;SDS011;7587;51.494;11.930;2022-07-05T14:20:24;3.08;;;1.10;;
14982;SDS011;7587;51.494;11.930;2022-07-05T14:22:51;1.70;;;1.10;;
14982;SDS011;7587;51.494;11.930;2022-07-05T14:25:17;1.88;;;1.33;;
14982;SDS011;7587;51.494;11.930;2022-07-05T14:27:45;2.20;;;1.45;;
14982;SDS011;7587;51.494;11.930;2022-07-05T14:30:12;3.75;;;1.20;;
14982;SDS011;7587;51.494;11.930;2022-07-05T14:32:38;2.42;;;1.17;;
14982;SDS011;7587;51.494;11.930;2022-07-05T14:35:05;3.28;;;1.20;;
14982;SDS011;7587;51.494;11.930;2022-07-05T14:37:32;1.77;;;1.17;;
14982;SDS011;7587;51.494;11.930;2022-07-05T14:39:59;6.72;;;1.75;;
14982;SDS011;7587;51.494;11.930;2022-07-05T14:42:25;2.05;;;1.35;;
14982;SDS011;7587;51.494;11.930;2022-07-05T14:44:53;2.40;;;1.38;;
14982;SDS011;7587;51.494;11.930;2022-07-05T14:47:20;3.05;;;1.48;;
14982;SDS011;7587;51.494;11.930;2022-07-05T14:49:46;2.95;;;1.27;;
14982;SDS011;7587;51.494;11.930;2022-07-05T14:52:13;3.78;;;0.98;;
14982;SDS011;7587;51.494;11.930;2022-07-05T14:54:39;2.55;;;1.40;;
14982;SDS011;7587;51.494;11.930;2022-07-05T14:57:06;3.97;;;1.70;;
14982;SDS011;7587;51.494;11.930;2022-07-05T14:59:32;2.05;;;1.05;;
14982;SDS011;7587;51.494;11.930;2022-07-05T15:02:00;6.25;;;1.30;;
14982;SDS011;7587;51.494;11.930;2022-07-05T15:04:28;2.67;;;1.38;;
14982;SDS011;7587;51.494;11.930;2022-07-05T15:06:54;2.17;;;1.33;;
14982;SDS011;7587;51.494;11.930;2022-07-05T15:09:20;4.93;;;1.23;;